createdAt,value
2022-12-31T00:00:35.434Z,10.99
2022-12-31T00:01:37.165Z,11
2022-12-31T00:02:39.006Z,11
2022-12-31T00:03:40.645Z,11.01
2022-12-31T00:04:42.329Z,11.02
2022-12-31T00:05:44.083Z,11.03
2022-12-31T00:06:45.815Z,11.03
2022-12-31T00:07:47.577Z,11.03
2022-12-31T00:08:49.296Z,11.03
2022-12-31T00:09:51.002Z,11.03
2022-12-31T00:10:52.745Z,11.03
2022-12-31T00:11:54.464Z,11.04
2022-12-31T00:12:56.209Z,11.04
2022-12-31T00:13:57.931Z,11.04
2022-12-31T00:14:59.673Z,11.05
2022-12-31T00:16:04.318Z,11.06
2022-12-31T00:17:03.204Z,11.06
2022-12-31T00:18:04.877Z,11.07
2022-12-31T00:19:06.627Z,11.08
2022-12-31T00:20:08.326Z,11.09
2022-12-31T00:21:10.080Z,11.09
2022-12-31T00:22:11.808Z,11.1
2022-12-31T00:23:13.546Z,11.1
2022-12-31T00:24:15.320Z,11.1
2022-12-31T00:25:17.021Z,11.11
2022-12-31T00:26:18.744Z,11.12
2022-12-31T00:27:20.472Z,11.12
2022-12-31T00:28:22.191Z,11.13
2022-12-31T00:29:23.974Z,11.13
2022-12-31T00:30:25.691Z,11.15
2022-12-31T00:31:27.400Z,11.15
2022-12-31T00:32:29.135Z,11.15
2022-12-31T00:33:30.878Z,11.16
2022-12-31T00:34:32.642Z,11.16
2022-12-31T00:35:34.331Z,11.16
2022-12-31T00:36:36.061Z,11.16
2022-12-31T00:37:37.799Z,11.17
2022-12-31T00:38:39.546Z,11.17
2022-12-31T00:39:41.293Z,11.18
2022-12-31T00:40:43.016Z,11.19
2022-12-31T00:41:44.748Z,11.2
2022-12-31T00:42:46.463Z,11.21
2022-12-31T00:43:48.209Z,11.22
2022-12-31T00:44:49.937Z,11.22
2022-12-31T00:45:51.715Z,11.22
2022-12-31T00:46:53.454Z,11.23
2022-12-31T00:47:55.127Z,11.23
2022-12-31T00:48:56.868Z,11.23
2022-12-31T00:49:58.606Z,11.24
2022-12-31T00:51:00.356Z,11.24
2022-12-31T00:52:02.079Z,11.25
2022-12-31T00:53:03.797Z,11.25
2022-12-31T00:54:05.546Z,11.27
2022-12-31T00:55:07.283Z,11.27
2022-12-31T00:56:09.009Z,11.28
2022-12-31T00:57:10.748Z,11.27
2022-12-31T00:58:12.495Z,11.28
2022-12-31T00:59:14.233Z,11.28
2022-12-31T01:00:15.944Z,11.29
2022-12-31T01:01:17.795Z,11.29
2022-12-31T01:02:19.542Z,11.3
2022-12-31T01:03:21.235Z,11.3
2022-12-31T01:04:22.865Z,11.3
2022-12-31T01:05:24.599Z,11.3
2022-12-31T01:06:26.347Z,11.3
2022-12-31T01:07:28.069Z,11.32
2022-12-31T01:08:29.802Z,11.32
2022-12-31T01:09:31.564Z,11.34
2022-12-31T01:10:33.273Z,11.34
2022-12-31T01:11:35.000Z,11.34
2022-12-31T01:12:36.735Z,11.34
2022-12-31T01:13:38.460Z,11.34
2022-12-31T01:14:40.218Z,11.34
2022-12-31T01:15:41.950Z,11.33
2022-12-31T01:16:43.693Z,11.34
2022-12-31T01:17:45.384Z,11.34
2022-12-31T01:18:47.144Z,11.34
2022-12-31T01:19:49.597Z,11.35
2022-12-31T01:20:51.308Z,11.36
2022-12-31T01:21:53.035Z,11.37
2022-12-31T01:22:54.771Z,11.37
2022-12-31T01:23:56.511Z,11.37
2022-12-31T01:24:58.249Z,11.38
2022-12-31T01:25:59.966Z,11.39
2022-12-31T01:27:01.721Z,11.41
2022-12-31T01:28:03.458Z,11.41
2022-12-31T01:29:05.175Z,11.43
2022-12-31T01:30:06.928Z,11.44
2022-12-31T01:31:08.691Z,11.44
2022-12-31T01:32:10.470Z,11.46
2022-12-31T01:33:12.114Z,11.47
2022-12-31T01:34:13.879Z,11.48
2022-12-31T01:35:15.584Z,11.48
2022-12-31T01:36:23.404Z,11.51
2022-12-31T01:37:19.078Z,11.52
2022-12-31T01:38:20.786Z,11.53
2022-12-31T01:39:22.513Z,11.56
2022-12-31T01:40:24.260Z,11.56
2022-12-31T01:41:25.981Z,11.57
2022-12-31T01:42:27.713Z,11.57
2022-12-31T01:43:29.460Z,11.57
2022-12-31T01:44:31.199Z,11.56
2022-12-31T01:45:32.927Z,11.56
2022-12-31T01:46:34.694Z,11.55
2022-12-31T01:47:36.391Z,11.56
2022-12-31T01:48:38.136Z,11.56
2022-12-31T01:49:39.878Z,11.56
2022-12-31T01:50:41.583Z,11.55
2022-12-31T01:51:43.316Z,11.54
2022-12-31T01:52:45.057Z,11.54
2022-12-31T01:53:46.794Z,11.52
2022-12-31T01:54:48.533Z,11.5
2022-12-31T01:55:50.253Z,11.5
2022-12-31T01:56:51.982Z,11.49
2022-12-31T01:57:53.720Z,11.51
2022-12-31T01:58:55.462Z,11.53
2022-12-31T01:59:57.194Z,11.56
2022-12-31T02:00:58.994Z,11.57
2022-12-31T02:02:00.758Z,11.58
2022-12-31T02:03:02.390Z,11.59
2022-12-31T02:04:04.111Z,11.59
2022-12-31T02:05:05.861Z,11.59
2022-12-31T02:06:07.587Z,11.58
2022-12-31T02:07:09.327Z,11.58
2022-12-31T02:08:11.051Z,11.58
2022-12-31T02:09:12.805Z,11.57
2022-12-31T02:10:14.530Z,11.56
2022-12-31T02:11:16.254Z,11.6
2022-12-31T02:12:17.993Z,11.59
2022-12-31T02:13:25.091Z,11.6
2022-12-31T02:14:26.604Z,11.63
2022-12-31T02:15:28.348Z,11.68
2022-12-31T02:16:30.071Z,11.67
2022-12-31T02:17:31.814Z,11.69
2022-12-31T02:18:33.569Z,11.69
2022-12-31T02:19:35.287Z,11.72
2022-12-31T02:20:36.991Z,11.73
2022-12-31T02:21:38.735Z,11.72
2022-12-31T02:22:40.483Z,11.71
2022-12-31T02:23:42.241Z,11.74
2022-12-31T02:24:43.940Z,11.75
2022-12-31T02:25:45.688Z,11.76
2022-12-31T02:26:47.411Z,11.79
2022-12-31T02:27:49.163Z,11.8
2022-12-31T02:28:50.900Z,11.82
2022-12-31T02:29:52.615Z,11.82
2022-12-31T02:30:54.431Z,11.82
2022-12-31T02:31:56.077Z,11.82
2022-12-31T02:32:57.801Z,11.83
2022-12-31T02:33:59.553Z,11.85
2022-12-31T02:35:01.312Z,11.86
2022-12-31T02:36:03.023Z,11.86
2022-12-31T02:37:04.775Z,11.87
2022-12-31T02:38:06.488Z,11.9
2022-12-31T02:39:08.225Z,11.89
2022-12-31T02:40:09.990Z,11.91
2022-12-31T02:41:11.682Z,11.93
2022-12-31T02:42:13.406Z,11.93
2022-12-31T02:43:15.149Z,11.94
2022-12-31T02:44:16.900Z,11.95
2022-12-31T02:45:18.643Z,11.97
2022-12-31T02:46:20.416Z,11.96
2022-12-31T02:47:22.086Z,11.96
2022-12-31T02:48:23.822Z,11.99
2022-12-31T02:49:25.553Z,11.97
2022-12-31T02:50:27.324Z,11.96
2022-12-31T02:51:29.020Z,11.96
2022-12-31T02:52:30.749Z,11.94
2022-12-31T02:53:32.502Z,11.95
2022-12-31T02:54:34.237Z,11.94
2022-12-31T02:55:35.964Z,11.95
2022-12-31T02:56:37.703Z,11.95
2022-12-31T02:57:39.445Z,11.95
2022-12-31T02:58:41.154Z,11.96
2022-12-31T02:59:42.921Z,11.95
2022-12-31T03:00:44.694Z,11.94
2022-12-31T03:01:46.455Z,11.95
2022-12-31T03:02:48.194Z,11.94
2022-12-31T03:03:49.843Z,11.94
2022-12-31T03:04:51.599Z,11.94
2022-12-31T03:05:53.305Z,11.94
2022-12-31T03:06:55.037Z,11.94
2022-12-31T03:07:56.821Z,11.93
2022-12-31T03:08:58.500Z,11.95
2022-12-31T03:10:00.252Z,11.95
2022-12-31T03:11:02.006Z,11.95
2022-12-31T03:12:03.696Z,11.96
2022-12-31T03:13:05.451Z,11.96
2022-12-31T03:14:07.182Z,11.97
2022-12-31T03:15:08.935Z,11.98
2022-12-31T03:16:10.647Z,11.98
2022-12-31T03:17:12.375Z,11.98
2022-12-31T03:18:14.106Z,11.99
2022-12-31T03:19:15.838Z,12
2022-12-31T03:20:17.565Z,12.02
2022-12-31T03:21:19.302Z,12.01
2022-12-31T03:22:21.057Z,12
2022-12-31T03:23:22.776Z,12.01
2022-12-31T03:24:50.156Z,12.01
2022-12-31T03:25:51.883Z,12.01
2022-12-31T03:26:53.607Z,12.01
2022-12-31T03:27:55.347Z,12
2022-12-31T03:28:57.074Z,12.02
2022-12-31T03:29:58.837Z,12.02
2022-12-31T03:31:00.623Z,12.03
2022-12-31T03:32:02.307Z,12.02
2022-12-31T03:33:04.013Z,12.03
2022-12-31T03:34:05.754Z,12.04
2022-12-31T03:35:07.507Z,12.04
2022-12-31T03:36:09.285Z,12.04
2022-12-31T03:37:10.955Z,12.05
2022-12-31T03:38:12.746Z,12.06
2022-12-31T03:39:14.454Z,12.07
2022-12-31T03:40:16.199Z,12.11
2022-12-31T03:41:17.913Z,12.12
2022-12-31T03:42:19.627Z,12.13
2022-12-31T03:43:21.369Z,12.14
2022-12-31T03:44:23.109Z,12.17
2022-12-31T03:45:24.839Z,12.17
2022-12-31T03:46:26.570Z,12.17
2022-12-31T03:47:28.293Z,12.18
2022-12-31T03:48:30.016Z,12.19
2022-12-31T03:49:31.772Z,12.2
2022-12-31T03:50:33.504Z,12.2
2022-12-31T03:51:35.228Z,12.21
2022-12-31T03:52:36.960Z,12.21
2022-12-31T03:53:38.722Z,12.22
2022-12-31T03:54:40.424Z,12.25
2022-12-31T03:55:42.168Z,12.26
2022-12-31T03:56:43.886Z,12.26
2022-12-31T03:57:45.641Z,12.28
2022-12-31T03:58:47.355Z,12.28
2022-12-31T03:59:49.133Z,12.28
2022-12-31T04:00:50.954Z,12.28
2022-12-31T04:01:52.646Z,12.28
2022-12-31T04:02:54.372Z,12.29
2022-12-31T04:03:56.043Z,12.3
2022-12-31T04:04:57.804Z,12.33
2022-12-31T04:05:59.505Z,12.33
2022-12-31T04:07:01.250Z,12.34
2022-12-31T04:08:02.963Z,12.35
2022-12-31T04:09:04.706Z,12.35
2022-12-31T04:10:06.465Z,12.36
2022-12-31T04:11:08.156Z,12.37
2022-12-31T04:12:09.916Z,12.38
2022-12-31T04:13:11.632Z,12.39
2022-12-31T04:14:13.379Z,12.42
2022-12-31T04:15:15.114Z,12.42
2022-12-31T04:16:16.887Z,12.44
2022-12-31T04:17:18.556Z,12.46
2022-12-31T04:18:20.308Z,12.48
2022-12-31T04:19:22.035Z,12.49
2022-12-31T04:20:23.797Z,12.52
2022-12-31T04:21:30.094Z,12.53
2022-12-31T04:22:27.264Z,12.55
2022-12-31T04:23:28.955Z,12.57
2022-12-31T04:24:30.718Z,12.58
2022-12-31T04:25:32.460Z,12.59
2022-12-31T04:26:34.177Z,12.6
2022-12-31T04:27:35.952Z,12.62
2022-12-31T04:28:37.667Z,12.64
2022-12-31T04:29:39.398Z,12.69
2022-12-31T04:30:41.120Z,12.69
2022-12-31T04:31:42.874Z,12.72
2022-12-31T04:32:44.601Z,12.72
2022-12-31T04:33:46.304Z,12.74
2022-12-31T04:34:48.071Z,12.74
2022-12-31T04:35:49.783Z,12.75
2022-12-31T04:36:51.523Z,12.77
2022-12-31T04:37:53.251Z,12.77
2022-12-31T04:38:55.002Z,12.78
2022-12-31T04:40:00.425Z,12.8
2022-12-31T04:40:58.456Z,12.81
2022-12-31T04:42:00.227Z,12.82
2022-12-31T04:43:01.914Z,12.84
2022-12-31T04:44:03.670Z,12.84
2022-12-31T04:45:05.392Z,12.84
2022-12-31T04:46:07.154Z,12.85
2022-12-31T04:47:08.857Z,12.84
2022-12-31T04:48:10.587Z,12.84
2022-12-31T04:49:12.345Z,12.84
2022-12-31T04:50:14.089Z,12.86
2022-12-31T04:51:15.805Z,12.88
2022-12-31T04:52:17.536Z,12.89
2022-12-31T04:53:19.265Z,12.91
2022-12-31T04:54:21.010Z,12.95
2022-12-31T04:55:22.728Z,12.97
2022-12-31T04:56:24.465Z,12.99
2022-12-31T04:57:26.192Z,13.02
2022-12-31T04:58:27.919Z,13.05
2022-12-31T04:59:29.661Z,13.09
2022-12-31T05:00:31.402Z,13.11
2022-12-31T05:01:33.412Z,13.14
2022-12-31T05:02:35.179Z,13.16
2022-12-31T05:03:36.581Z,13.18
2022-12-31T05:04:38.316Z,13.2
2022-12-31T05:05:40.115Z,13.23
2022-12-31T05:06:41.790Z,13.25
2022-12-31T05:07:43.560Z,13.28
2022-12-31T05:08:45.283Z,13.29
2022-12-31T05:09:47.024Z,13.31
2022-12-31T05:10:48.734Z,13.32
2022-12-31T05:11:50.463Z,13.33
2022-12-31T05:12:52.199Z,13.34
2022-12-31T05:13:53.909Z,13.35
2022-12-31T05:14:55.667Z,13.36
2022-12-31T05:15:57.421Z,13.36
2022-12-31T05:16:59.160Z,13.37
2022-12-31T05:18:00.878Z,13.38
2022-12-31T05:19:02.826Z,13.39
2022-12-31T05:20:04.348Z,13.4
2022-12-31T05:21:06.066Z,13.42
2022-12-31T05:22:07.805Z,13.42
2022-12-31T05:23:09.526Z,13.43
2022-12-31T05:24:11.280Z,13.43
2022-12-31T05:25:13.023Z,13.45
2022-12-31T05:26:14.728Z,13.45
2022-12-31T05:27:16.472Z,13.47
2022-12-31T05:28:18.246Z,13.48
2022-12-31T05:29:19.930Z,13.49
2022-12-31T05:30:21.691Z,13.5
2022-12-31T05:31:23.401Z,13.5
2022-12-31T05:32:25.149Z,13.5
2022-12-31T05:33:26.892Z,13.5
2022-12-31T05:34:28.625Z,13.51
2022-12-31T05:35:30.339Z,13.5
2022-12-31T05:36:32.079Z,13.49
2022-12-31T05:37:33.810Z,13.49
2022-12-31T05:38:35.540Z,13.48
2022-12-31T05:39:37.264Z,13.46
2022-12-31T05:40:39.075Z,13.43
2022-12-31T05:41:40.829Z,13.43
2022-12-31T05:42:42.483Z,13.41
2022-12-31T05:43:44.224Z,13.4
2022-12-31T05:44:45.964Z,13.38
2022-12-31T05:45:47.726Z,13.37
2022-12-31T05:46:49.431Z,13.36
2022-12-31T05:47:51.146Z,13.36
2022-12-31T05:48:52.954Z,13.36
2022-12-31T05:49:54.628Z,13.36
2022-12-31T05:50:56.397Z,13.36
2022-12-31T05:51:58.111Z,13.38
2022-12-31T05:52:59.813Z,13.38
2022-12-31T05:54:01.552Z,13.38
2022-12-31T05:55:03.301Z,13.39
2022-12-31T05:56:05.015Z,13.38
2022-12-31T05:57:06.860Z,13.38
2022-12-31T05:58:08.504Z,13.37
2022-12-31T05:59:10.211Z,13.38
2022-12-31T06:00:11.983Z,13.4
2022-12-31T06:01:13.757Z,13.41
2022-12-31T06:02:15.515Z,13.41
2022-12-31T06:03:17.292Z,13.42
2022-12-31T06:04:18.892Z,13.42
2022-12-31T06:05:25.952Z,13.43
2022-12-31T06:06:22.387Z,13.43
2022-12-31T06:07:24.077Z,13.44
2022-12-31T06:08:25.823Z,13.45
2022-12-31T06:09:27.582Z,13.45
2022-12-31T06:10:29.308Z,13.45
2022-12-31T06:11:31.027Z,13.45
2022-12-31T06:12:32.755Z,13.44
2022-12-31T06:13:34.485Z,13.43
2022-12-31T06:14:38.557Z,13.44
2022-12-31T06:15:37.985Z,13.43
2022-12-31T06:16:39.691Z,13.45
2022-12-31T06:17:41.434Z,13.48
2022-12-31T06:18:43.170Z,13.5
2022-12-31T06:19:44.913Z,13.51
2022-12-31T06:20:46.627Z,13.53
2022-12-31T06:21:48.374Z,13.54
2022-12-31T06:22:50.110Z,13.55
2022-12-31T06:23:51.845Z,13.56
2022-12-31T06:24:53.568Z,13.57
2022-12-31T06:25:55.294Z,13.59
2022-12-31T06:26:57.028Z,13.61
2022-12-31T06:27:58.767Z,13.63
2022-12-31T06:29:00.507Z,13.65
2022-12-31T06:30:02.271Z,13.67
2022-12-31T06:31:04.033Z,13.69
2022-12-31T06:32:05.695Z,13.69
2022-12-31T06:33:07.425Z,13.7
2022-12-31T06:34:09.191Z,13.7
2022-12-31T06:35:10.927Z,13.72
2022-12-31T06:36:12.666Z,13.7
2022-12-31T06:37:14.369Z,13.71
2022-12-31T06:38:16.111Z,13.72
2022-12-31T06:39:17.844Z,13.72
2022-12-31T06:40:19.596Z,13.73
2022-12-31T06:41:21.314Z,13.74
2022-12-31T06:42:23.063Z,13.73
2022-12-31T06:43:24.770Z,13.73
2022-12-31T06:44:26.500Z,13.73
2022-12-31T06:45:28.308Z,13.73
2022-12-31T06:46:30.008Z,13.72
2022-12-31T06:47:31.725Z,13.72
2022-12-31T06:48:33.430Z,13.71
2022-12-31T06:49:35.181Z,13.71
2022-12-31T06:50:36.926Z,13.7
2022-12-31T06:51:38.642Z,13.7
2022-12-31T06:52:40.438Z,13.68
2022-12-31T06:53:42.112Z,13.68
2022-12-31T06:54:43.868Z,13.67
2022-12-31T06:55:45.598Z,13.66
2022-12-31T06:56:47.352Z,13.67
2022-12-31T06:57:49.047Z,13.66
2022-12-31T06:58:50.781Z,13.66
2022-12-31T06:59:52.515Z,13.66
2022-12-31T07:00:54.243Z,13.65
2022-12-31T07:01:56.063Z,13.66
2022-12-31T07:02:57.783Z,13.67
2022-12-31T07:03:59.484Z,13.67
2022-12-31T07:05:01.196Z,13.66
2022-12-31T07:06:03.034Z,13.67
2022-12-31T07:07:04.650Z,13.68
2022-12-31T07:08:06.410Z,13.69
2022-12-31T07:09:08.132Z,13.69
2022-12-31T07:10:09.863Z,13.69
2022-12-31T07:11:11.579Z,13.69
2022-12-31T07:12:13.309Z,13.69
2022-12-31T07:13:15.057Z,13.69
2022-12-31T07:14:16.791Z,13.68
2022-12-31T07:15:18.529Z,13.69
2022-12-31T07:16:20.311Z,13.68
2022-12-31T07:17:21.972Z,13.68
2022-12-31T07:18:23.726Z,13.68
2022-12-31T07:19:25.439Z,13.68
2022-12-31T07:20:27.205Z,13.68
2022-12-31T07:21:28.921Z,13.67
2022-12-31T07:22:30.637Z,13.66
2022-12-31T07:23:32.381Z,13.65
2022-12-31T07:24:34.107Z,13.64
2022-12-31T07:25:35.846Z,13.63
2022-12-31T07:26:37.575Z,13.6
2022-12-31T07:27:39.312Z,13.6
2022-12-31T07:28:41.039Z,13.59
2022-12-31T07:29:42.781Z,13.58
2022-12-31T07:30:44.520Z,13.56
2022-12-31T07:31:46.315Z,13.54
2022-12-31T07:32:47.973Z,13.53
2022-12-31T07:33:49.719Z,13.51
2022-12-31T07:34:51.464Z,13.51
2022-12-31T07:35:53.177Z,13.48
2022-12-31T07:36:54.904Z,13.47
2022-12-31T07:37:56.634Z,13.46
2022-12-31T07:38:58.372Z,13.44
2022-12-31T07:40:00.175Z,13.43
2022-12-31T07:41:07.359Z,13.41
2022-12-31T07:42:03.574Z,13.4
2022-12-31T07:43:05.316Z,13.36
2022-12-31T07:44:07.049Z,13.35
2022-12-31T07:45:08.781Z,13.34
2022-12-31T07:46:10.569Z,13.32
2022-12-31T07:47:12.248Z,13.33
2022-12-31T07:48:13.982Z,13.31
2022-12-31T07:49:15.708Z,13.3
2022-12-31T07:50:17.453Z,13.29
2022-12-31T07:52:28.285Z,13.28
2022-12-31T07:53:53.662Z,13.27
2022-12-31T07:54:55.421Z,13.28
2022-12-31T07:55:57.153Z,13.28
2022-12-31T07:56:58.894Z,13.27
2022-12-31T07:58:00.607Z,13.27
2022-12-31T07:59:02.372Z,13.27
2022-12-31T08:00:04.182Z,13.25
2022-12-31T08:01:05.880Z,13.25
2022-12-31T08:02:07.672Z,13.25
2022-12-31T08:03:09.308Z,13.25
2022-12-31T08:04:11.022Z,13.26
2022-12-31T08:05:12.762Z,13.25
2022-12-31T08:06:14.477Z,13.26
2022-12-31T08:07:16.231Z,13.26
2022-12-31T08:08:17.983Z,13.27
2022-12-31T08:09:19.677Z,13.28
2022-12-31T08:10:21.416Z,13.29
2022-12-31T08:11:23.160Z,13.3
2022-12-31T08:12:24.883Z,13.32
2022-12-31T08:13:26.617Z,13.32
2022-12-31T08:14:28.361Z,13.33
2022-12-31T08:15:30.537Z,13.34
2022-12-31T08:16:31.909Z,13.35
2022-12-31T08:17:33.545Z,13.34
2022-12-31T08:18:35.272Z,13.35
2022-12-31T08:19:37.010Z,13.36
2022-12-31T08:20:38.849Z,13.35
2022-12-31T08:21:40.494Z,13.36
2022-12-31T08:22:42.228Z,13.36
2022-12-31T08:23:43.950Z,13.35
2022-12-31T08:24:45.688Z,13.34
2022-12-31T08:25:47.423Z,13.34
2022-12-31T08:26:52.960Z,13.35
2022-12-31T08:27:50.872Z,13.35
2022-12-31T08:28:52.608Z,13.34
2022-12-31T08:29:54.345Z,13.34
2022-12-31T08:30:56.093Z,13.33
2022-12-31T08:31:57.838Z,13.32
2022-12-31T08:32:59.551Z,13.32
2022-12-31T08:34:05.816Z,13.33
2022-12-31T08:35:02.993Z,13.32
2022-12-31T08:36:04.756Z,13.33
2022-12-31T08:37:06.476Z,13.33
2022-12-31T08:38:08.210Z,13.33
2022-12-31T08:39:09.950Z,13.33
2022-12-31T08:40:11.724Z,13.34
2022-12-31T08:41:13.435Z,13.34
2022-12-31T08:42:15.132Z,13.34
2022-12-31T08:43:16.867Z,13.35
2022-12-31T08:44:18.620Z,13.35
2022-12-31T08:45:20.347Z,13.35
2022-12-31T08:46:22.094Z,13.37
2022-12-31T08:47:23.817Z,13.37
2022-12-31T08:48:25.534Z,13.38
2022-12-31T08:49:27.276Z,13.38
2022-12-31T08:50:29.062Z,13.4
2022-12-31T08:51:30.768Z,13.39
2022-12-31T08:52:32.471Z,13.41
2022-12-31T08:53:34.201Z,13.41
2022-12-31T08:54:35.955Z,13.4
2022-12-31T08:55:37.699Z,13.41
2022-12-31T08:56:39.414Z,13.4
2022-12-31T08:57:41.134Z,13.38
2022-12-31T08:58:42.878Z,13.38
2022-12-31T08:59:44.624Z,13.38
2022-12-31T09:00:46.418Z,13.39
2022-12-31T09:01:48.247Z,13.41
2022-12-31T09:02:49.814Z,13.4
2022-12-31T09:03:51.611Z,13.4
2022-12-31T09:04:53.279Z,13.41
2022-12-31T09:05:55.035Z,13.42
2022-12-31T09:06:56.736Z,13.42
2022-12-31T09:07:58.488Z,13.42
2022-12-31T09:09:00.249Z,13.43
2022-12-31T09:10:01.969Z,13.44
2022-12-31T09:11:03.705Z,13.45
2022-12-31T09:12:09.461Z,13.45
2022-12-31T09:13:12.253Z,13.45
2022-12-31T09:14:13.993Z,13.47
2022-12-31T09:15:15.739Z,13.47
2022-12-31T09:16:17.475Z,13.48
2022-12-31T09:17:19.159Z,13.48
2022-12-31T09:18:34.745Z,13.5
2022-12-31T09:19:38.067Z,13.49
2022-12-31T09:20:44.383Z,13.49
2022-12-31T09:21:41.535Z,13.5
2022-12-31T09:22:43.312Z,13.48
2022-12-31T09:23:45.004Z,13.48
2022-12-31T09:24:46.713Z,13.49
2022-12-31T09:25:48.458Z,13.47
2022-12-31T09:26:50.244Z,13.45
2022-12-31T09:27:51.921Z,13.45
2022-12-31T09:28:53.695Z,13.45
2022-12-31T09:29:55.663Z,13.45
2022-12-31T09:30:57.124Z,13.46
2022-12-31T09:31:58.893Z,13.48
2022-12-31T09:33:01.264Z,13.49
2022-12-31T09:34:02.321Z,13.5
2022-12-31T09:35:04.132Z,13.51
2022-12-31T09:36:05.780Z,13.51
2022-12-31T09:37:12.069Z,13.51
2022-12-31T09:38:14.404Z,13.54
2022-12-31T09:39:16.132Z,13.55
2022-12-31T09:40:17.864Z,13.58
2022-12-31T09:41:19.585Z,13.61
2022-12-31T09:42:21.380Z,13.65
2022-12-31T09:43:23.077Z,13.7
2022-12-31T09:44:24.804Z,13.77
2022-12-31T09:45:26.556Z,13.79
2022-12-31T09:46:28.270Z,13.8
2022-12-31T09:47:29.991Z,13.81
2022-12-31T09:48:31.740Z,13.83
2022-12-31T09:49:33.472Z,13.82
2022-12-31T09:50:35.222Z,13.82
2022-12-31T09:51:36.967Z,13.81
2022-12-31T09:52:38.694Z,13.8
2022-12-31T09:53:40.422Z,13.8
2022-12-31T09:54:42.137Z,13.82
2022-12-31T09:55:43.901Z,13.85
2022-12-31T09:56:45.615Z,13.87
2022-12-31T09:57:47.327Z,13.89
2022-12-31T09:58:49.080Z,13.92
2022-12-31T09:59:50.811Z,13.93
2022-12-31T10:00:52.615Z,13.96
2022-12-31T10:01:54.454Z,14.01
2022-12-31T10:02:56.064Z,14.02
2022-12-31T10:03:57.759Z,14.07
2022-12-31T10:04:59.505Z,14.09
2022-12-31T10:06:01.228Z,14.12
2022-12-31T10:07:02.970Z,14.15
2022-12-31T10:08:04.676Z,14.18
2022-12-31T10:09:06.437Z,14.23
2022-12-31T10:10:08.171Z,14.28
2022-12-31T10:11:09.877Z,14.3
2022-12-31T10:12:11.670Z,14.3
2022-12-31T10:13:13.365Z,14.33
2022-12-31T10:14:15.096Z,14.32
2022-12-31T10:15:16.836Z,14.32
2022-12-31T10:16:18.624Z,14.32
2022-12-31T10:17:20.277Z,14.32
2022-12-31T10:18:22.032Z,14.36
2022-12-31T10:19:23.745Z,14.39
2022-12-31T10:20:25.494Z,14.42
2022-12-31T10:21:27.212Z,14.49
2022-12-31T10:22:28.954Z,14.53
2022-12-31T10:23:30.692Z,14.56
2022-12-31T10:24:32.422Z,14.62
2022-12-31T10:25:38.669Z,14.66
2022-12-31T10:26:35.888Z,14.72
2022-12-31T10:27:37.604Z,14.8
2022-12-31T10:28:39.350Z,14.82
2022-12-31T10:29:41.094Z,14.88
2022-12-31T10:30:42.850Z,14.91
2022-12-31T10:31:44.560Z,14.93
2022-12-31T10:32:46.308Z,14.98
2022-12-31T10:33:48.047Z,15.02
2022-12-31T10:34:49.759Z,15.02
2022-12-31T10:35:51.501Z,15.05
2022-12-31T10:36:53.233Z,15.08
2022-12-31T10:37:55.010Z,15.11
2022-12-31T10:38:56.719Z,15.12
2022-12-31T10:39:58.437Z,15.13
2022-12-31T10:41:00.175Z,15.15
2022-12-31T10:42:01.899Z,15.17
2022-12-31T10:43:03.635Z,15.17
2022-12-31T10:44:05.375Z,15.18
2022-12-31T10:45:07.134Z,15.18
2022-12-31T10:46:08.898Z,15.17
2022-12-31T10:47:10.565Z,15.18
2022-12-31T10:48:12.302Z,15.21
2022-12-31T10:49:14.060Z,15.23
2022-12-31T10:50:15.820Z,15.24
2022-12-31T10:51:17.495Z,15.25
2022-12-31T10:52:19.237Z,15.27
2022-12-31T10:53:20.980Z,15.3
2022-12-31T10:54:22.691Z,15.28
2022-12-31T10:55:24.458Z,15.28
2022-12-31T10:56:26.182Z,15.29
2022-12-31T10:57:27.909Z,15.28
2022-12-31T10:58:29.665Z,15.28
2022-12-31T10:59:31.364Z,15.3
2022-12-31T11:00:33.129Z,15.3
2022-12-31T11:01:34.972Z,15.29
2022-12-31T11:02:36.746Z,15.28
2022-12-31T11:03:38.379Z,15.28
2022-12-31T11:04:40.341Z,15.28
2022-12-31T11:05:41.794Z,15.29
2022-12-31T11:06:43.521Z,15.27
2022-12-31T11:07:45.238Z,15.29
2022-12-31T11:08:47.017Z,15.28
2022-12-31T11:09:48.728Z,15.28
2022-12-31T11:10:50.481Z,15.28
2022-12-31T11:11:52.202Z,15.29
2022-12-31T11:12:53.907Z,15.29
2022-12-31T11:13:55.660Z,15.29
2022-12-31T11:14:57.373Z,15.29
2022-12-31T11:15:59.172Z,15.3
2022-12-31T11:17:00.868Z,15.29
2022-12-31T11:18:02.593Z,15.29
2022-12-31T11:19:04.309Z,15.28
2022-12-31T11:20:06.058Z,15.27
2022-12-31T11:21:07.808Z,15.24
2022-12-31T11:22:09.545Z,15.24
2022-12-31T11:23:11.257Z,15.22
2022-12-31T11:24:12.995Z,15.21
2022-12-31T11:25:14.734Z,15.23
2022-12-31T11:26:16.458Z,15.22
2022-12-31T11:27:18.201Z,15.2
2022-12-31T11:28:19.940Z,15.2
2022-12-31T11:29:21.661Z,15.18
2022-12-31T11:30:23.396Z,15.17
2022-12-31T11:31:25.196Z,15.18
2022-12-31T11:32:26.847Z,15.19
2022-12-31T11:33:28.599Z,15.19
2022-12-31T11:34:30.321Z,15.2
2022-12-31T11:35:32.100Z,15.21
2022-12-31T11:36:33.799Z,15.22
2022-12-31T11:37:35.575Z,15.22
2022-12-31T11:38:37.258Z,15.24
2022-12-31T11:39:38.998Z,15.26
2022-12-31T11:40:40.749Z,15.27
2022-12-31T11:41:42.483Z,15.27
2022-12-31T11:42:44.206Z,15.28
2022-12-31T11:43:45.994Z,15.29
2022-12-31T11:44:47.662Z,15.3
2022-12-31T11:45:50.920Z,15.31
2022-12-31T11:46:51.250Z,15.32
2022-12-31T11:48:20.587Z,15.32
2022-12-31T11:48:54.612Z,15.32
2022-12-31T11:49:56.350Z,15.31
2022-12-31T11:50:58.076Z,15.3
2022-12-31T11:51:59.797Z,15.29
2022-12-31T11:53:01.541Z,15.3
2022-12-31T11:54:03.258Z,15.3
2022-12-31T11:55:05.003Z,15.31
2022-12-31T11:56:06.753Z,15.31
2022-12-31T11:57:08.470Z,15.29
2022-12-31T11:58:10.209Z,15.28
2022-12-31T11:59:17.128Z,15.25
2022-12-31T12:00:13.836Z,15.26
2022-12-31T12:01:15.440Z,15.23
2022-12-31T12:02:17.234Z,15.23
2022-12-31T12:03:18.913Z,15.2
2022-12-31T12:04:20.614Z,15.2
2022-12-31T12:05:22.364Z,15.17
2022-12-31T12:06:24.140Z,15.14
2022-12-31T12:07:25.812Z,15.11
2022-12-31T12:08:27.591Z,15.08
2022-12-31T12:09:29.288Z,15.08
2022-12-31T12:10:36.217Z,15.02
2022-12-31T12:11:32.751Z,15.01
2022-12-31T12:12:34.486Z,14.99
2022-12-31T12:13:36.247Z,14.96
2022-12-31T12:14:37.949Z,14.93
2022-12-31T12:15:39.705Z,14.92
2022-12-31T12:16:41.538Z,14.92
2022-12-31T12:17:43.147Z,14.91
2022-12-31T12:18:44.928Z,14.9
2022-12-31T12:19:46.603Z,14.88
2022-12-31T12:20:48.358Z,14.88
2022-12-31T12:21:50.111Z,14.87
2022-12-31T12:22:51.864Z,14.87
2022-12-31T12:23:53.574Z,14.86
2022-12-31T12:24:55.290Z,14.85
2022-12-31T12:25:57.061Z,14.83
2022-12-31T12:26:58.775Z,14.82
2022-12-31T12:28:00.487Z,14.8
2022-12-31T12:29:02.248Z,14.78
2022-12-31T12:30:03.940Z,14.78
2022-12-31T12:31:05.775Z,14.77
2022-12-31T12:32:07.633Z,14.76
2022-12-31T12:33:09.203Z,14.75
2022-12-31T12:34:10.885Z,14.74
2022-12-31T12:35:12.659Z,14.73
2022-12-31T12:36:14.353Z,14.74
2022-12-31T12:37:16.097Z,14.73
2022-12-31T12:38:17.834Z,14.71
2022-12-31T12:39:19.568Z,14.68
2022-12-31T12:40:21.349Z,14.68
2022-12-31T12:41:23.043Z,14.67
2022-12-31T12:42:24.775Z,14.67
2022-12-31T12:43:26.515Z,14.67
2022-12-31T12:44:28.234Z,14.67
2022-12-31T12:45:30.027Z,14.69
2022-12-31T12:46:31.738Z,14.71
2022-12-31T12:47:33.424Z,14.72
2022-12-31T12:48:35.140Z,14.74
2022-12-31T12:49:36.889Z,14.76
2022-12-31T12:50:38.635Z,14.79
2022-12-31T12:51:40.370Z,14.82
2022-12-31T12:52:42.092Z,14.85
2022-12-31T12:53:43.841Z,14.87
2022-12-31T12:54:45.566Z,14.89
2022-12-31T12:55:47.323Z,14.91
2022-12-31T12:56:49.052Z,14.92
2022-12-31T12:58:19.357Z,14.93
2022-12-31T12:59:19.855Z,14.94
2022-12-31T13:00:19.991Z,14.95
2022-12-31T13:01:21.903Z,14.96
2022-12-31T13:02:23.575Z,14.97
2022-12-31T13:03:25.197Z,14.97
2022-12-31T13:04:35.265Z,14.97
2022-12-31T13:05:28.717Z,14.97
2022-12-31T13:06:30.404Z,14.97
2022-12-31T13:07:32.130Z,14.97
2022-12-31T13:08:33.879Z,14.98
2022-12-31T13:09:39.747Z,14.99
2022-12-31T13:10:40.397Z,14.98
2022-12-31T13:11:42.104Z,14.99
2022-12-31T13:13:22.252Z,14.99
2022-12-31T13:13:45.577Z,15
2022-12-31T13:14:47.307Z,14.99
2022-12-31T13:15:49.042Z,14.99
2022-12-31T13:16:50.794Z,14.97
2022-12-31T13:17:56.105Z,14.95
2022-12-31T13:18:54.243Z,14.94
2022-12-31T13:19:55.968Z,14.94
2022-12-31T13:20:57.699Z,14.94